Detalii statie Girov TCE 3 BRAZI [000011A2]

Toti senzorii

Date Temperatura solului [C]Precipitatii [mm]Voltaj baterie [mV]Leaf Wetness [Min]HC Air temperature [C]HC Relative humidity [%]Punctul de roua [C]
medieminmaxsumaultimatimpmedieminmaxmediemediemin
2020-05-31 07:00:00 0 6542 0 13.12 13.03 13.27 100 13 13
2020-05-31 08:00:00 0 6688 0 13.1 12.99 13.25 100 13 12.9
2020-05-31 09:00:00 0 6756 0 13.14 12.99 13.24 100 13 12.9
2020-05-31 10:00:00 0 6844 0 13.24 13.16 13.36 100 13.2 13.1
2020-05-31 11:00:00 0 6914 0 13.08 13.04 13.14 100 13 13
2020-05-31 12:00:00 0 6992 0 13.21 13.15 13.27 100 13.1 13.1
2020-05-31 13:00:00 0 6992 0 12.75 12.26 13.19 100 12.7 12.2
2020-05-31 14:00:00 0.2 7000 0 12.26 12.05 12.63 100 12.2 12
2020-05-31 15:00:00 0.2 6992 0 12.11 11.82 12.3 100 12 11.8
2020-05-31 16:00:00 0.4 7000 0 10.92 10.35 11.79 100 10.8 10.3
2020-05-31 17:00:00 0.2 7000 0 10.62 10.45 10.77 100 10.5 10.4
2020-05-31 18:00:00 0.8 6992 0 9.91 9.68 10.34 100 9.8 9.6
2020-05-31 19:00:00 0 6982 0 11.13 10.02 12.09 100 11 10
2020-05-31 20:00:00 0 6914 0 12.11 11.87 12.27 100 12 11.8
2020-05-31 21:00:00 0 6766 0 11.54 11.27 11.8 100 11.5 11.2
2020-05-31 22:00:00 0 6668 0 10.77 10.51 11.15 100 10.7 10.5
2020-05-31 23:00:00 0 6600 0 10.8 10.54 11.37 100 10.7 10.5
2020-06-01 00:00:00 0 6582 0 11.16 10.87 11.54 100 11.1 10.8
2020-06-01 01:00:00 0 6572 0 10.78 10.68 10.92 100 10.7 10.6
2020-06-01 02:00:00 0 6552 0 10.09 9.75 10.68 100 10 9.7
2020-06-01 03:00:00 0.4 6532 0 9.77 9.6 9.9 100 9.7 9.6
2020-06-01 04:00:00 0 6522 0 9.4 9.3 9.56 100 9.3 9.3
2020-06-01 05:00:00 0 6512 0 9.11 8.98 9.33 100 9 8.9
2020-06-01 06:00:00 0 6512 0 9.1 9.02 9.22 100 9 9
2020-06-01 07:00:00 0 6562 0 9.47 9.22 9.92 100 9.4 9.2
2020-06-01 08:00:00 0 6796 0 10.73 10.04 11.46 100 10.6 10
2020-06-01 09:00:00 0 6942 0 13.2 11.39 15.59 100 13.1 11.3
2020-06-01 10:00:00 0 6992 0 14.43 13.66 15.63 100 14.4 13.6
2020-06-01 11:00:00 0 6992 0 15.03 14.47 15.35 100 14.9 14.4
2020-06-01 12:00:00 0.8 7000 0 13.25 12.34 14.63 100 13.2 12.3
2020-06-01 13:00:00 0 7000 0 16.52 15.24 18.13 100 16.4 15.2
2020-06-01 14:00:00 0 6992 0 18.81 17.98 19.47 100 18.7 17.9
2020-06-01 15:00:00 0 7000 0 17.18 16.03 18.71 100 17.1 16
2020-06-01 16:00:00 0 6992 0 17.76 16.25 18.88 100 17.7 16.2
2020-06-01 17:00:00 0 6992 0 16.59 16.12 17.3 100 16.5 16.1
2020-06-01 18:00:00 0 6982 0 17.59 16.61 19 100 17.5 16.6
2020-06-01 19:00:00 0 6894 0 16.12 15.63 16.77 100 16 15.6
2020-06-01 20:00:00 0 6806 0 13.68 13.03 15.52 100 13.6 13
2020-06-01 21:00:00 0 6688 0 12.32 11.68 12.97 100 12.2 11.6
2020-06-01 22:00:00 0 6610 0 11.35 11.13 11.58 100 11.3 11.1
2020-06-01 23:00:00 0 6590 0 11.03 10.45 11.53 100 11 10.4
2020-06-02 00:00:00 0 6572 0 9.65 9.25 10.3 100 9.6 9.2
2020-06-02 01:00:00 0 6552 0 9.13 9.08 9.22 100 9.1 9
2020-06-02 02:00:00 0 6542 0 8.87 8.69 9.11 100 8.8 8.6
2020-06-02 03:00:00 0 6532 0 8.55 8.39 8.66 100 8.5 8.3
2020-06-02 04:00:00 0 6532 0 8.25 8.18 8.34 100 8.2 8.1
2020-06-02 05:00:00 0 6512 0 7.82 7.45 8.12 100 7.7 7.4
2020-06-02 06:00:00 0 6512 0 7.38 7.2 7.89 100 7.3 7.2